الصفحة الرئيسية
METAR-TAF:

METAR-TAF

مطار :

Winslow, أريزونا, الولايات المتحدة

دائرة عرض: 35-01-41N, خط طول: 110-43-15W, ارتفاع: 1505 متر

مراقبة الطقس الحالي

تاريخ ووقت الإصدار 1ساعة و 8 دقيقة قبل الساعة 23:56UTC
ريح 12 عقدة من الغرب/الجنوب الغربي
درجة الحرارة 23°درجة مئوية
الرطوبة 17%
ضغط 1017 hPa
الرؤية: 16.1 كم
سماء صافية

METAR: KINW 142356Z AUTO 25012KT 10SM CLR 23/M03 A3002 RMK AO2 SLP117 T02331033 10256 20211 53002

زمن: 18:04 (01:04 UTC)

توقعات

تاريخ ووقت الإصدار 1ساعة و 42 دقيقة قبل الساعة 23:22UTC
التوقعات صالحة من15 الساعة 00 UTC إلى 15 الساعة 24 UTC
ريح 5 عقدةمن اتجاهات متغيرة
الرؤية: 10 كم
سماء صافية

TAF: KINW 142322Z 1500/1524 VRB05KT P6SM SKC

أرصاد الطقس والتوقعات من أكثر من 4000 مطار (تقارير الطقس للمطار METAR والتنبؤ بالطقس بالمطارTAF).

المحطات المتاحة هي النقط الصفراء والحمراء على الخريطة.

حرك المؤشر فوق النقطة لمعرفة اسم المحطة.

ثم انقر لمعرفة أرصاد وتوقعات الطقس.

لتغيير الخارطة: اضغط على الأزرار الخضراء مع رمز الصليب الأسود للتكبير. على الزر الأخضر مع شرطة للتصغير، أو على الأسهم الخضراء للخرائط المجاورة.


METAR-TAF: